sensor_id;sensor_type;location;lat;lon;timestamp;P1;durP1;ratioP1;P2;durP2;ratioP2
6434;SDS011;3250;42.694;23.278;2023-11-22T00:00:18;28.73;;;14.73;;
6434;SDS011;3250;42.694;23.278;2023-11-22T00:02:46;36.13;;;17.47;;
6434;SDS011;3250;42.694;23.278;2023-11-22T00:05:12;36.60;;;16.37;;
6434;SDS011;3250;42.694;23.278;2023-11-22T00:07:38;35.63;;;16.60;;
6434;SDS011;3250;42.694;23.278;2023-11-22T00:10:03;40.87;;;17.93;;
6434;SDS011;3250;42.694;23.278;2023-11-22T00:12:30;28.63;;;12.97;;
6434;SDS011;3250;42.694;23.278;2023-11-22T00:15:02;42.03;;;16.77;;
6434;SDS011;3250;42.694;23.278;2023-11-22T00:17:31;37.50;;;17.47;;
6434;SDS011;3250;42.694;23.278;2023-11-22T00:19:57;36.60;;;15.87;;
6434;SDS011;3250;42.694;23.278;2023-11-22T00:22:25;36.00;;;16.33;;
6434;SDS011;3250;42.694;23.278;2023-11-22T00:24:52;42.50;;;18.80;;
6434;SDS011;3250;42.694;23.278;2023-11-22T00:27:18;34.67;;;18.10;;
6434;SDS011;3250;42.694;23.278;2023-11-22T00:29:43;46.30;;;18.97;;
6434;SDS011;3250;42.694;23.278;2023-11-22T00:32:08;46.70;;;20.37;;
6434;SDS011;3250;42.694;23.278;2023-11-22T00:34:34;58.23;;;24.83;;
6434;SDS011;3250;42.694;23.278;2023-11-22T00:36:59;52.23;;;23.00;;
6434;SDS011;3250;42.694;23.278;2023-11-22T00:39:25;53.20;;;20.77;;
6434;SDS011;3250;42.694;23.278;2023-11-22T00:41:50;33.60;;;16.97;;
6434;SDS011;3250;42.694;23.278;2023-11-22T00:44:16;52.63;;;17.17;;
6434;SDS011;3250;42.694;23.278;2023-11-22T00:46:41;33.80;;;15.20;;
6434;SDS011;3250;42.694;23.278;2023-11-22T00:49:07;38.53;;;16.70;;
6434;SDS011;3250;42.694;23.278;2023-11-22T00:51:35;34.13;;;15.23;;
6434;SDS011;3250;42.694;23.278;2023-11-22T00:54:00;40.93;;;17.93;;
6434;SDS011;3250;42.694;23.278;2023-11-22T00:56:26;39.13;;;18.10;;
6434;SDS011;3250;42.694;23.278;2023-11-22T00:58:52;26.90;;;15.10;;
6434;SDS011;3250;42.694;23.278;2023-11-22T01:01:19;33.43;;;14.83;;
6434;SDS011;3250;42.694;23.278;2023-11-22T01:03:44;38.67;;;15.87;;
6434;SDS011;3250;42.694;23.278;2023-11-22T01:06:10;32.03;;;16.30;;
6434;SDS011;3250;42.694;23.278;2023-11-22T01:08:35;47.93;;;16.67;;
6434;SDS011;3250;42.694;23.278;2023-11-22T01:11:02;31.67;;;14.80;;
6434;SDS011;3250;42.694;23.278;2023-11-22T01:13:28;32.77;;;14.27;;
6434;SDS011;3250;42.694;23.278;2023-11-22T01:15:54;30.07;;;14.10;;
6434;SDS011;3250;42.694;23.278;2023-11-22T01:18:19;27.13;;;11.60;;
6434;SDS011;3250;42.694;23.278;2023-11-22T01:20:45;25.00;;;12.67;;
6434;SDS011;3250;42.694;23.278;2023-11-22T01:23:10;32.83;;;14.10;;
6434;SDS011;3250;42.694;23.278;2023-11-22T01:25:36;30.50;;;14.33;;
6434;SDS011;3250;42.694;23.278;2023-11-22T01:28:01;32.40;;;14.10;;
6434;SDS011;3250;42.694;23.278;2023-11-22T01:30:27;29.40;;;13.47;;
6434;SDS011;3250;42.694;23.278;2023-11-22T01:32:53;24.50;;;11.43;;
6434;SDS011;3250;42.694;23.278;2023-11-22T01:35:20;24.67;;;11.50;;
6434;SDS011;3250;42.694;23.278;2023-11-22T01:37:46;26.23;;;11.77;;
6434;SDS011;3250;42.694;23.278;2023-11-22T01:40:11;26.23;;;12.67;;
6434;SDS011;3250;42.694;23.278;2023-11-22T01:42:37;26.83;;;11.50;;
6434;SDS011;3250;42.694;23.278;2023-11-22T01:45:05;23.83;;;13.67;;
6434;SDS011;3250;42.694;23.278;2023-11-22T01:47:31;20.70;;;10.33;;
6434;SDS011;3250;42.694;23.278;2023-11-22T01:49:57;20.57;;;11.00;;
6434;SDS011;3250;42.694;23.278;2023-11-22T01:52:23;22.67;;;10.47;;
6434;SDS011;3250;42.694;23.278;2023-11-22T01:54:49;29.70;;;12.40;;
6434;SDS011;3250;42.694;23.278;2023-11-22T01:57:14;20.57;;;11.20;;
6434;SDS011;3250;42.694;23.278;2023-11-22T01:59:40;22.80;;;11.00;;
6434;SDS011;3250;42.694;23.278;2023-11-22T02:02:08;24.20;;;11.60;;
6434;SDS011;3250;42.694;23.278;2023-11-22T02:04:34;19.67;;;10.43;;
6434;SDS011;3250;42.694;23.278;2023-11-22T02:06:59;25.00;;;11.33;;
6434;SDS011;3250;42.694;23.278;2023-11-22T02:09:25;20.63;;;10.97;;
6434;SDS011;3250;42.694;23.278;2023-11-22T02:11:50;21.37;;;10.30;;
6434;SDS011;3250;42.694;23.278;2023-11-22T02:14:16;19.67;;;10.37;;
6434;SDS011;3250;42.694;23.278;2023-11-22T02:16:41;24.50;;;10.87;;
6434;SDS011;3250;42.694;23.278;2023-11-22T02:19:08;25.57;;;11.70;;
6434;SDS011;3250;42.694;23.278;2023-11-22T02:21:39;16.93;;;10.40;;
6434;SDS011;3250;42.694;23.278;2023-11-22T02:24:05;19.87;;;9.27;;
6434;SDS011;3250;42.694;23.278;2023-11-22T02:26:32;19.17;;;10.23;;
6434;SDS011;3250;42.694;23.278;2023-11-22T02:28:58;20.90;;;9.87;;
6434;SDS011;3250;42.694;23.278;2023-11-22T02:31:24;19.10;;;10.00;;
6434;SDS011;3250;42.694;23.278;2023-11-22T02:33:49;22.20;;;9.53;;
6434;SDS011;3250;42.694;23.278;2023-11-22T02:36:15;14.93;;;8.13;;
6434;SDS011;3250;42.694;23.278;2023-11-22T02:38:41;18.30;;;8.67;;
6434;SDS011;3250;42.694;23.278;2023-11-22T02:41:09;21.27;;;8.80;;
6434;SDS011;3250;42.694;23.278;2023-11-22T02:43:34;17.93;;;9.60;;
6434;SDS011;3250;42.694;23.278;2023-11-22T02:46:00;18.57;;;8.73;;
6434;SDS011;3250;42.694;23.278;2023-11-22T02:48:26;20.47;;;9.60;;
6434;SDS011;3250;42.694;23.278;2023-11-22T02:50:51;16.10;;;9.03;;
6434;SDS011;3250;42.694;23.278;2023-11-22T02:53:19;18.13;;;8.77;;
6434;SDS011;3250;42.694;23.278;2023-11-22T02:55:44;19.67;;;9.17;;
6434;SDS011;3250;42.694;23.278;2023-11-22T02:58:10;17.77;;;9.80;;
6434;SDS011;3250;42.694;23.278;2023-11-22T03:00:37;15.10;;;9.00;;
6434;SDS011;3250;42.694;23.278;2023-11-22T03:03:03;17.93;;;8.47;;
6434;SDS011;3250;42.694;23.278;2023-11-22T03:05:29;21.03;;;9.57;;
6434;SDS011;3250;42.694;23.278;2023-11-22T03:07:55;17.53;;;9.53;;
6434;SDS011;3250;42.694;23.278;2023-11-22T03:10:22;18.47;;;9.67;;
6434;SDS011;3250;42.694;23.278;2023-11-22T03:12:47;17.67;;;8.70;;
6434;SDS011;3250;42.694;23.278;2023-11-22T03:15:12;19.23;;;8.57;;
6434;SDS011;3250;42.694;23.278;2023-11-22T03:17:38;20.50;;;9.63;;
6434;SDS011;3250;42.694;23.278;2023-11-22T03:20:04;15.50;;;8.90;;
6434;SDS011;3250;42.694;23.278;2023-11-22T03:22:34;18.83;;;9.67;;
6434;SDS011;3250;42.694;23.278;2023-11-22T03:25:03;18.23;;;8.50;;
6434;SDS011;3250;42.694;23.278;2023-11-22T03:27:29;20.73;;;8.23;;
6434;SDS011;3250;42.694;23.278;2023-11-22T03:29:55;16.87;;;7.70;;
6434;SDS011;3250;42.694;23.278;2023-11-22T03:32:21;16.03;;;7.77;;
6434;SDS011;3250;42.694;23.278;2023-11-22T03:34:46;19.53;;;8.97;;
6434;SDS011;3250;42.694;23.278;2023-11-22T03:37:12;22.17;;;8.57;;
6434;SDS011;3250;42.694;23.278;2023-11-22T03:39:38;18.87;;;9.73;;
6434;SDS011;3250;42.694;23.278;2023-11-22T03:42:03;17.60;;;8.97;;
6434;SDS011;3250;42.694;23.278;2023-11-22T03:44:29;18.33;;;9.50;;
6434;SDS011;3250;42.694;23.278;2023-11-22T03:46:55;15.13;;;8.80;;
6434;SDS011;3250;42.694;23.278;2023-11-22T03:49:20;20.13;;;9.47;;
6434;SDS011;3250;42.694;23.278;2023-11-22T03:51:46;18.33;;;9.10;;
6434;SDS011;3250;42.694;23.278;2023-11-22T03:54:12;20.77;;;9.23;;
6434;SDS011;3250;42.694;23.278;2023-11-22T03:56:38;18.50;;;9.37;;
6434;SDS011;3250;42.694;23.278;2023-11-22T03:59:04;17.63;;;9.23;;
6434;SDS011;3250;42.694;23.278;2023-11-22T04:01:29;24.23;;;9.53;;
6434;SDS011;3250;42.694;23.278;2023-11-22T04:03:55;23.13;;;9.70;;
6434;SDS011;3250;42.694;23.278;2023-11-22T04:06:21;14.40;;;8.67;;
6434;SDS011;3250;42.694;23.278;2023-11-22T04:08:48;19.70;;;10.03;;
6434;SDS011;3250;42.694;23.278;2023-11-22T04:11:13;19.63;;;10.47;;
6434;SDS011;3250;42.694;23.278;2023-11-22T04:13:40;21.80;;;8.40;;
6434;SDS011;3250;42.694;23.278;2023-11-22T04:16:06;20.20;;;10.90;;
6434;SDS011;3250;42.694;23.278;2023-11-22T04:18:38;21.97;;;9.87;;
6434;SDS011;3250;42.694;23.278;2023-11-22T04:21:05;25.63;;;12.77;;
6434;SDS011;3250;42.694;23.278;2023-11-22T04:23:31;25.80;;;13.83;;
6434;SDS011;3250;42.694;23.278;2023-11-22T04:25:59;24.37;;;12.13;;
6434;SDS011;3250;42.694;23.278;2023-11-22T04:28:26;40.43;;;17.57;;
6434;SDS011;3250;42.694;23.278;2023-11-22T04:30:52;35.90;;;17.17;;
6434;SDS011;3250;42.694;23.278;2023-11-22T04:33:18;32.50;;;15.30;;
6434;SDS011;3250;42.694;23.278;2023-11-22T04:35:44;41.40;;;15.20;;
6434;SDS011;3250;42.694;23.278;2023-11-22T04:38:09;35.70;;;16.87;;
6434;SDS011;3250;42.694;23.278;2023-11-22T04:40:35;49.63;;;18.40;;
6434;SDS011;3250;42.694;23.278;2023-11-22T04:43:01;38.80;;;17.17;;
6434;SDS011;3250;42.694;23.278;2023-11-22T04:45:27;44.72;;;22.50;;
6434;SDS011;3250;42.694;23.278;2023-11-22T04:47:52;40.77;;;18.00;;
6434;SDS011;3250;42.694;23.278;2023-11-22T04:50:18;41.50;;;19.50;;
6434;SDS011;3250;42.694;23.278;2023-11-22T04:52:43;27.13;;;17.13;;
6434;SDS011;3250;42.694;23.278;2023-11-22T04:55:09;51.50;;;18.37;;
6434;SDS011;3250;42.694;23.278;2023-11-22T04:57:34;35.37;;;17.17;;
6434;SDS011;3250;42.694;23.278;2023-11-22T05:00:00;47.13;;;19.53;;
6434;SDS011;3250;42.694;23.278;2023-11-22T05:02:25;40.77;;;16.30;;
6434;SDS011;3250;42.694;23.278;2023-11-22T05:04:52;43.57;;;21.30;;
6434;SDS011;3250;42.694;23.278;2023-11-22T05:07:17;37.40;;;19.20;;
6434;SDS011;3250;42.694;23.278;2023-11-22T05:09:44;37.90;;;16.73;;
6434;SDS011;3250;42.694;23.278;2023-11-22T05:12:09;38.47;;;18.03;;
6434;SDS011;3250;42.694;23.278;2023-11-22T05:14:36;37.13;;;16.53;;
6434;SDS011;3250;42.694;23.278;2023-11-22T05:17:02;33.10;;;17.33;;
6434;SDS011;3250;42.694;23.278;2023-11-22T05:19:29;40.40;;;17.13;;
6434;SDS011;3250;42.694;23.278;2023-11-22T05:21:55;45.57;;;16.87;;
6434;SDS011;3250;42.694;23.278;2023-11-22T05:24:20;35.67;;;15.53;;
6434;SDS011;3250;42.694;23.278;2023-11-22T05:26:46;30.47;;;14.70;;
6434;SDS011;3250;42.694;23.278;2023-11-22T05:29:11;21.60;;;12.27;;
6434;SDS011;3250;42.694;23.278;2023-11-22T05:31:37;22.80;;;11.00;;
6434;SDS011;3250;42.694;23.278;2023-11-22T05:34:02;21.13;;;10.83;;
6434;SDS011;3250;42.694;23.278;2023-11-22T05:36:28;29.50;;;10.50;;
6434;SDS011;3250;42.694;23.278;2023-11-22T05:38:54;22.93;;;10.27;;
6434;SDS011;3250;42.694;23.278;2023-11-22T05:41:20;21.90;;;10.20;;
6434;SDS011;3250;42.694;23.278;2023-11-22T05:43:46;18.63;;;10.20;;
6434;SDS011;3250;42.694;23.278;2023-11-22T05:46:11;23.23;;;12.00;;
6434;SDS011;3250;42.694;23.278;2023-11-22T05:48:37;23.30;;;12.40;;
6434;SDS011;3250;42.694;23.278;2023-11-22T05:51:03;29.20;;;11.20;;
6434;SDS011;3250;42.694;23.278;2023-11-22T05:53:28;20.93;;;11.83;;
6434;SDS011;3250;42.694;23.278;2023-11-22T05:55:54;25.73;;;11.87;;
6434;SDS011;3250;42.694;23.278;2023-11-22T05:58:19;27.17;;;11.83;;
6434;SDS011;3250;42.694;23.278;2023-11-22T06:00:46;22.97;;;12.07;;
6434;SDS011;3250;42.694;23.278;2023-11-22T06:03:12;24.93;;;12.30;;
6434;SDS011;3250;42.694;23.278;2023-11-22T06:05:41;24.13;;;13.17;;
6434;SDS011;3250;42.694;23.278;2023-11-22T06:08:06;23.67;;;12.23;;
6434;SDS011;3250;42.694;23.278;2023-11-22T06:10:34;22.57;;;12.97;;
6434;SDS011;3250;42.694;23.278;2023-11-22T06:12:59;26.47;;;13.33;;
6434;SDS011;3250;42.694;23.278;2023-11-22T06:15:24;27.17;;;15.23;;
6434;SDS011;3250;42.694;23.278;2023-11-22T06:17:50;29.13;;;14.43;;
6434;SDS011;3250;42.694;23.278;2023-11-22T06:20:15;32.77;;;13.77;;
6434;SDS011;3250;42.694;23.278;2023-11-22T06:22:41;27.00;;;13.43;;
6434;SDS011;3250;42.694;23.278;2023-11-22T06:25:10;23.63;;;12.70;;
6434;SDS011;3250;42.694;23.278;2023-11-22T06:27:37;26.40;;;12.50;;
6434;SDS011;3250;42.694;23.278;2023-11-22T06:30:03;17.93;;;11.57;;
6434;SDS011;3250;42.694;23.278;2023-11-22T06:32:31;25.20;;;13.43;;
6434;SDS011;3250;42.694;23.278;2023-11-22T06:34:57;30.53;;;15.10;;
6434;SDS011;3250;42.694;23.278;2023-11-22T06:37:22;28.47;;;14.53;;
6434;SDS011;3250;42.694;23.278;2023-11-22T06:39:47;26.67;;;14.23;;
6434;SDS011;3250;42.694;23.278;2023-11-22T06:42:13;30.07;;;15.60;;
6434;SDS011;3250;42.694;23.278;2023-11-22T06:44:38;33.83;;;14.77;;
6434;SDS011;3250;42.694;23.278;2023-11-22T06:47:07;26.13;;;14.87;;
6434;SDS011;3250;42.694;23.278;2023-11-22T06:49:32;27.33;;;15.43;;
6434;SDS011;3250;42.694;23.278;2023-11-22T06:51:59;27.60;;;15.27;;
6434;SDS011;3250;42.694;23.278;2023-11-22T06:54:24;28.17;;;15.13;;
6434;SDS011;3250;42.694;23.278;2023-11-22T06:56:50;27.17;;;14.53;;
6434;SDS011;3250;42.694;23.278;2023-11-22T06:59:16;30.03;;;15.87;;
6434;SDS011;3250;42.694;23.278;2023-11-22T07:01:42;28.27;;;14.57;;
6434;SDS011;3250;42.694;23.278;2023-11-22T07:04:07;25.93;;;14.70;;
6434;SDS011;3250;42.694;23.278;2023-11-22T07:06:33;31.90;;;17.53;;
6434;SDS011;3250;42.694;23.278;2023-11-22T07:08:58;38.60;;;18.10;;
6434;SDS011;3250;42.694;23.278;2023-11-22T07:11:24;33.70;;;17.30;;
6434;SDS011;3250;42.694;23.278;2023-11-22T07:13:51;41.37;;;18.40;;
6434;SDS011;3250;42.694;23.278;2023-11-22T07:16:17;33.83;;;17.80;;
6434;SDS011;3250;42.694;23.278;2023-11-22T07:18:43;41.93;;;18.87;;
6434;SDS011;3250;42.694;23.278;2023-11-22T07:21:10;38.90;;;19.57;;
6434;SDS011;3250;42.694;23.278;2023-11-22T07:23:36;52.97;;;21.70;;
6434;SDS011;3250;42.694;23.278;2023-11-22T07:26:03;43.13;;;20.80;;
6434;SDS011;3250;42.694;23.278;2023-11-22T07:28:31;53.50;;;25.90;;
6434;SDS011;3250;42.694;23.278;2023-11-22T07:30:56;49.20;;;23.83;;
6434;SDS011;3250;42.694;23.278;2023-11-22T07:33:22;57.70;;;25.60;;
6434;SDS011;3250;42.694;23.278;2023-11-22T07:35:51;55.67;;;24.93;;
6434;SDS011;3250;42.694;23.278;2023-11-22T07:38:17;46.90;;;22.90;;
6434;SDS011;3250;42.694;23.278;2023-11-22T07:40:42;52.60;;;23.77;;
6434;SDS011;3250;42.694;23.278;2023-11-22T07:43:07;64.27;;;29.10;;
6434;SDS011;3250;42.694;23.278;2023-11-22T07:45:34;71.10;;;32.00;;
6434;SDS011;3250;42.694;23.278;2023-11-22T07:47:59;88.53;;;36.57;;
6434;SDS011;3250;42.694;23.278;2023-11-22T07:50:26;86.60;;;36.73;;
6434;SDS011;3250;42.694;23.278;2023-11-22T07:52:52;74.40;;;36.87;;
6434;SDS011;3250;42.694;23.278;2023-11-22T07:55:17;79.70;;;36.93;;
6434;SDS011;3250;42.694;23.278;2023-11-22T07:57:48;69.23;;;34.13;;
6434;SDS011;3250;42.694;23.278;2023-11-22T08:00:15;93.00;;;41.80;;
6434;SDS011;3250;42.694;23.278;2023-11-22T08:02:44;102.97;;;45.10;;
6434;SDS011;3250;42.694;23.278;2023-11-22T08:05:10;93.53;;;44.97;;
6434;SDS011;3250;42.694;23.278;2023-11-22T08:07:37;99.93;;;48.80;;
6434;SDS011;3250;42.694;23.278;2023-11-22T08:10:06;119.40;;;51.73;;
6434;SDS011;3250;42.694;23.278;2023-11-22T08:12:44;100.53;;;51.73;;
6434;SDS011;3250;42.694;23.278;2023-11-22T08:15:10;98.07;;;42.70;;
6434;SDS011;3250;42.694;23.278;2023-11-22T08:17:38;66.03;;;29.70;;
6434;SDS011;3250;42.694;23.278;2023-11-22T08:20:04;48.90;;;27.13;;
6434;SDS011;3250;42.694;23.278;2023-11-22T08:22:31;55.83;;;25.43;;
6434;SDS011;3250;42.694;23.278;2023-11-22T08:25:03;35.90;;;17.00;;
6434;SDS011;3250;42.694;23.278;2023-11-22T08:27:29;34.00;;;16.90;;
6434;SDS011;3250;42.694;23.278;2023-11-22T08:29:54;33.30;;;14.23;;
6434;SDS011;3250;42.694;23.278;2023-11-22T08:32:20;20.40;;;12.23;;
6434;SDS011;3250;42.694;23.278;2023-11-22T08:34:48;24.73;;;13.53;;
6434;SDS011;3250;42.694;23.278;2023-11-22T08:37:14;20.13;;;11.63;;
6434;SDS011;3250;42.694;23.278;2023-11-22T08:39:40;30.80;;;12.33;;
6434;SDS011;3250;42.694;23.278;2023-11-22T08:42:06;22.10;;;11.93;;
6434;SDS011;3250;42.694;23.278;2023-11-22T08:44:35;17.37;;;10.50;;
6434;SDS011;3250;42.694;23.278;2023-11-22T08:47:01;20.97;;;10.53;;
6434;SDS011;3250;42.694;23.278;2023-11-22T08:49:28;20.63;;;10.57;;
6434;SDS011;3250;42.694;23.278;2023-11-22T08:51:53;24.10;;;11.73;;
6434;SDS011;3250;42.694;23.278;2023-11-22T08:54:19;21.03;;;10.47;;
6434;SDS011;3250;42.694;23.278;2023-11-22T08:56:44;21.90;;;10.30;;
6434;SDS011;3250;42.694;23.278;2023-11-22T08:59:12;26.77;;;10.00;;
6434;SDS011;3250;42.694;23.278;2023-11-22T09:01:37;21.40;;;12.17;;
6434;SDS011;3250;42.694;23.278;2023-11-22T09:04:03;24.20;;;10.07;;
6434;SDS011;3250;42.694;23.278;2023-11-22T09:06:29;16.50;;;9.20;;
6434;SDS011;3250;42.694;23.278;2023-11-22T09:08:55;14.20;;;8.60;;
6434;SDS011;3250;42.694;23.278;2023-11-22T09:11:21;18.80;;;9.70;;
6434;SDS011;3250;42.694;23.278;2023-11-22T09:13:47;20.43;;;10.27;;
6434;SDS011;3250;42.694;23.278;2023-11-22T09:16:15;22.23;;;10.97;;
6434;SDS011;3250;42.694;23.278;2023-11-22T09:18:41;25.13;;;12.93;;
6434;SDS011;3250;42.694;23.278;2023-11-22T09:21:08;23.87;;;12.27;;
6434;SDS011;3250;42.694;23.278;2023-11-22T09:23:34;20.23;;;10.83;;
6434;SDS011;3250;42.694;23.278;2023-11-22T09:26:01;21.37;;;10.40;;
6434;SDS011;3250;42.694;23.278;2023-11-22T09:28:27;17.93;;;10.80;;
6434;SDS011;3250;42.694;23.278;2023-11-22T09:30:53;19.30;;;10.27;;
6434;SDS011;3250;42.694;23.278;2023-11-22T09:33:26;27.03;;;10.73;;
6434;SDS011;3250;42.694;23.278;2023-11-22T09:35:52;17.57;;;11.00;;
6434;SDS011;3250;42.694;23.278;2023-11-22T09:38:17;23.63;;;12.77;;
6434;SDS011;3250;42.694;23.278;2023-11-22T09:40:46;25.17;;;13.83;;
6434;SDS011;3250;42.694;23.278;2023-11-22T09:43:14;24.60;;;13.07;;
6434;SDS011;3250;42.694;23.278;2023-11-22T09:45:42;26.23;;;14.20;;
6434;SDS011;3250;42.694;23.278;2023-11-22T09:48:15;29.90;;;15.83;;
6434;SDS011;3250;42.694;23.278;2023-11-22T09:53:25;30.23;;;15.60;;
6434;SDS011;3250;42.694;23.278;2023-11-22T09:56:00;32.43;;;15.97;;
6434;SDS011;3250;42.694;23.278;2023-11-22T09:58:32;28.13;;;15.33;;
6434;SDS011;3250;42.694;23.278;2023-11-22T10:01:02;28.77;;;14.97;;
6434;SDS011;3250;42.694;23.278;2023-11-22T10:03:32;29.67;;;14.50;;
6434;SDS011;3250;42.694;23.278;2023-11-22T10:05:58;38.97;;;15.90;;
6434;SDS011;3250;42.694;23.278;2023-11-22T10:08:25;23.03;;;14.40;;
6434;SDS011;3250;42.694;23.278;2023-11-22T10:10:52;20.67;;;10.97;;
6434;SDS011;3250;42.694;23.278;2023-11-22T10:13:19;19.00;;;11.37;;
6434;SDS011;3250;42.694;23.278;2023-11-22T10:15:48;21.97;;;13.23;;
6434;SDS011;3250;42.694;23.278;2023-11-22T10:18:14;34.37;;;13.77;;
6434;SDS011;3250;42.694;23.278;2023-11-22T10:20:40;31.57;;;14.63;;
6434;SDS011;3250;42.694;23.278;2023-11-22T10:23:10;26.00;;;13.33;;
6434;SDS011;3250;42.694;23.278;2023-11-22T10:28:11;26.20;;;12.30;;
6434;SDS011;3250;42.694;23.278;2023-11-22T10:30:37;72.47;;;33.43;;
6434;SDS011;3250;42.694;23.278;2023-11-22T10:33:03;63.63;;;29.60;;
6434;SDS011;3250;42.694;23.278;2023-11-22T10:35:29;40.43;;;22.13;;
6434;SDS011;3250;42.694;23.278;2023-11-22T10:37:54;76.37;;;35.20;;
6434;SDS011;3250;42.694;23.278;2023-11-22T10:40:20;34.77;;;17.20;;
6434;SDS011;3250;42.694;23.278;2023-11-22T10:42:45;28.43;;;15.73;;
6434;SDS011;3250;42.694;23.278;2023-11-22T10:45:17;29.57;;;12.30;;
6434;SDS011;3250;42.694;23.278;2023-11-22T10:47:43;20.10;;;12.33;;
6434;SDS011;3250;42.694;23.278;2023-11-22T10:50:08;21.00;;;11.70;;
6434;SDS011;3250;42.694;23.278;2023-11-22T10:52:35;22.00;;;12.27;;
6434;SDS011;3250;42.694;23.278;2023-11-22T10:55:02;18.03;;;8.80;;
6434;SDS011;3250;42.694;23.278;2023-11-22T10:57:47;15.00;;;8.07;;
6434;SDS011;3250;42.694;23.278;2023-11-22T11:00:16;12.93;;;7.03;;
6434;SDS011;3250;42.694;23.278;2023-11-22T11:02:47;13.47;;;7.57;;
6434;SDS011;3250;42.694;23.278;2023-11-22T11:05:20;13.30;;;6.57;;
6434;SDS011;3250;42.694;23.278;2023-11-22T11:07:54;13.90;;;6.73;;
6434;SDS011;3250;42.694;23.278;2023-11-22T11:10:45;9.60;;;7.03;;
6434;SDS011;3250;42.694;23.278;2023-11-22T11:13:11;19.30;;;7.57;;
6434;SDS011;3250;42.694;23.278;2023-11-22T11:15:38;21.10;;;11.00;;
6434;SDS011;3250;42.694;23.278;2023-11-22T11:18:05;19.07;;;11.37;;
6434;SDS011;3250;42.694;23.278;2023-11-22T11:23:37;24.63;;;12.57;;
6434;SDS011;3250;42.694;23.278;2023-11-22T11:26:20;24.27;;;13.37;;
6434;SDS011;3250;42.694;23.278;2023-11-22T11:28:47;24.07;;;11.83;;
6434;SDS011;3250;42.694;23.278;2023-11-22T11:31:14;24.40;;;12.77;;
6434;SDS011;3250;42.694;23.278;2023-11-22T11:38:51;28.50;;;14.27;;
6434;SDS011;3250;42.694;23.278;2023-11-22T11:41:22;22.07;;;13.63;;
6434;SDS011;3250;42.694;23.278;2023-11-22T11:43:50;26.10;;;12.67;;
6434;SDS011;3250;42.694;23.278;2023-11-22T11:46:16;23.00;;;12.23;;
6434;SDS011;3250;42.694;23.278;2023-11-22T11:48:43;18.77;;;10.70;;
6434;SDS011;3250;42.694;23.278;2023-11-22T11:51:17;25.23;;;13.27;;
6434;SDS011;3250;42.694;23.278;2023-11-22T11:53:46;27.93;;;14.07;;
6434;SDS011;3250;42.694;23.278;2023-11-22T11:56:12;21.13;;;13.07;;
6434;SDS011;3250;42.694;23.278;2023-11-22T11:58:40;26.27;;;14.03;;
6434;SDS011;3250;42.694;23.278;2023-11-22T12:01:07;30.40;;;16.87;;
6434;SDS011;3250;42.694;23.278;2023-11-22T12:03:35;36.30;;;19.40;;
6434;SDS011;3250;42.694;23.278;2023-11-22T12:06:01;36.43;;;16.27;;
6434;SDS011;3250;42.694;23.278;2023-11-22T12:08:27;24.63;;;12.33;;
6434;SDS011;3250;42.694;23.278;2023-11-22T12:10:55;18.50;;;9.70;;
6434;SDS011;3250;42.694;23.278;2023-11-22T12:13:24;18.03;;;10.07;;
6434;SDS011;3250;42.694;23.278;2023-11-22T12:15:51;17.90;;;10.50;;
6434;SDS011;3250;42.694;23.278;2023-11-22T12:18:19;27.00;;;13.87;;
6434;SDS011;3250;42.694;23.278;2023-11-22T12:23:41;20.00;;;11.50;;
6434;SDS011;3250;42.694;23.278;2023-11-22T12:26:11;18.90;;;10.90;;
6434;SDS011;3250;42.694;23.278;2023-11-22T12:28:38;15.83;;;9.43;;
6434;SDS011;3250;42.694;23.278;2023-11-22T12:31:12;18.00;;;9.67;;
6434;SDS011;3250;42.694;23.278;2023-11-22T12:33:40;17.00;;;8.17;;
6434;SDS011;3250;42.694;23.278;2023-11-22T12:36:06;19.40;;;7.93;;
6434;SDS011;3250;42.694;23.278;2023-11-22T12:38:34;14.67;;;6.73;;
6434;SDS011;3250;42.694;23.278;2023-11-22T12:41:02;17.50;;;7.60;;
6434;SDS011;3250;42.694;23.278;2023-11-22T12:43:31;14.47;;;7.27;;
6434;SDS011;3250;42.694;23.278;2023-11-22T12:46:01;13.27;;;6.00;;
6434;SDS011;3250;42.694;23.278;2023-11-22T12:48:28;12.50;;;5.80;;
6434;SDS011;3250;42.694;23.278;2023-11-22T12:50:57;13.40;;;7.10;;
6434;SDS011;3250;42.694;23.278;2023-11-22T12:53:24;11.90;;;6.40;;
6434;SDS011;3250;42.694;23.278;2023-11-22T12:55:53;16.63;;;6.37;;
6434;SDS011;3250;42.694;23.278;2023-11-22T12:58:20;15.17;;;7.10;;
6434;SDS011;3250;42.694;23.278;2023-11-22T13:00:47;16.67;;;6.60;;
6434;SDS011;3250;42.694;23.278;2023-11-22T13:03:14;12.70;;;6.53;;
6434;SDS011;3250;42.694;23.278;2023-11-22T13:05:40;16.13;;;6.53;;
6434;SDS011;3250;42.694;23.278;2023-11-22T13:08:08;18.33;;;6.00;;
6434;SDS011;3250;42.694;23.278;2023-11-22T13:10:36;12.97;;;6.40;;
6434;SDS011;3250;42.694;23.278;2023-11-22T13:13:01;9.30;;;6.27;;
6434;SDS011;3250;42.694;23.278;2023-11-22T13:15:27;14.47;;;7.33;;
6434;SDS011;3250;42.694;23.278;2023-11-22T13:17:53;13.93;;;6.87;;
6434;SDS011;3250;42.694;23.278;2023-11-22T13:20:23;20.90;;;8.47;;
6434;SDS011;3250;42.694;23.278;2023-11-22T13:22:50;13.47;;;6.73;;
6434;SDS011;3250;42.694;23.278;2023-11-22T13:25:16;12.40;;;5.37;;
6434;SDS011;3250;42.694;23.278;2023-11-22T13:27:44;9.73;;;5.90;;
6434;SDS011;3250;42.694;23.278;2023-11-22T13:30:17;15.27;;;9.00;;
6434;SDS011;3250;42.694;23.278;2023-11-22T13:32:47;14.07;;;6.53;;
6434;SDS011;3250;42.694;23.278;2023-11-22T13:35:16;13.63;;;6.97;;
6434;SDS011;3250;42.694;23.278;2023-11-22T13:37:46;9.70;;;6.30;;
6434;SDS011;3250;42.694;23.278;2023-11-22T13:40:15;11.23;;;5.10;;
6434;SDS011;3250;42.694;23.278;2023-11-22T13:42:47;11.90;;;5.97;;
6434;SDS011;3250;42.694;23.278;2023-11-22T13:45:15;10.93;;;5.80;;
6434;SDS011;3250;42.694;23.278;2023-11-22T13:47:45;10.17;;;5.80;;
6434;SDS011;3250;42.694;23.278;2023-11-22T13:50:15;9.37;;;5.03;;
6434;SDS011;3250;42.694;23.278;2023-11-22T13:52:46;9.97;;;3.97;;
6434;SDS011;3250;42.694;23.278;2023-11-22T13:55:12;7.90;;;4.87;;
6434;SDS011;3250;42.694;23.278;2023-11-22T13:57:38;13.77;;;6.47;;
6434;SDS011;3250;42.694;23.278;2023-11-22T14:00:07;9.53;;;5.27;;
6434;SDS011;3250;42.694;23.278;2023-11-22T14:02:46;8.23;;;4.83;;
6434;SDS011;3250;42.694;23.278;2023-11-22T14:05:12;9.80;;;5.57;;
6434;SDS011;3250;42.694;23.278;2023-11-22T14:07:38;9.00;;;5.50;;
6434;SDS011;3250;42.694;23.278;2023-11-22T14:10:04;12.60;;;5.43;;
6434;SDS011;3250;42.694;23.278;2023-11-22T14:12:31;14.53;;;7.13;;
6434;SDS011;3250;42.694;23.278;2023-11-22T14:14:57;12.43;;;7.30;;
6434;SDS011;3250;42.694;23.278;2023-11-22T14:17:23;16.27;;;6.83;;
6434;SDS011;3250;42.694;23.278;2023-11-22T14:19:49;9.07;;;5.97;;
6434;SDS011;3250;42.694;23.278;2023-11-22T14:22:15;14.60;;;6.73;;
6434;SDS011;3250;42.694;23.278;2023-11-22T14:24:42;12.40;;;6.53;;
6434;SDS011;3250;42.694;23.278;2023-11-22T14:27:10;9.70;;;5.53;;
6434;SDS011;3250;42.694;23.278;2023-11-22T14:29:36;10.30;;;5.73;;
6434;SDS011;3250;42.694;23.278;2023-11-22T14:32:02;9.90;;;5.63;;
6434;SDS011;3250;42.694;23.278;2023-11-22T14:34:27;8.80;;;6.23;;
6434;SDS011;3250;42.694;23.278;2023-11-22T14:36:53;10.03;;;6.13;;
6434;SDS011;3250;42.694;23.278;2023-11-22T14:39:18;9.93;;;5.57;;
6434;SDS011;3250;42.694;23.278;2023-11-22T14:41:45;9.73;;;5.73;;
6434;SDS011;3250;42.694;23.278;2023-11-22T14:44:11;13.07;;;5.43;;
6434;SDS011;3250;42.694;23.278;2023-11-22T14:46:36;14.50;;;5.80;;
6434;SDS011;3250;42.694;23.278;2023-11-22T14:49:02;9.93;;;5.10;;
6434;SDS011;3250;42.694;23.278;2023-11-22T14:51:29;15.87;;;5.83;;